Time;durP1;ratioP1;P1;durP2;ratioP2;P2;SDS_P1;SDS_P2;PMS_P1;PMS_P2;Temp;Humidity;BMP_temperature;BMP_pressure;BME280_temperature;BME280_humidity;BME280_pressure;Samples;Min_cycle;Max_cycle;Signal;HPM_P1;HPM_P2
2023/06/15 00:00:46;;;;;;;;;26.75;26.00;;;;;;;;5025553;28;51239;-60
2023/06/15 00:03:12;;;;;;;;;34.00;31.25;;;;;;;;5018571;28;51153;-60
2023/06/15 00:05:37;;;;;;;;;31.75;29.75;;;;;;;;5025212;28;51730;-60
2023/06/15 00:08:02;;;;;;;;;32.50;31.00;;;;;;;;5017865;28;51212;-60
2023/06/15 00:10:27;;;;;;;;;30.50;29.75;;;;;;;;5022895;28;52809;-60
2023/06/15 00:12:53;;;;;;;;;30.75;30.00;;;;;;;;5019137;28;51133;-61
2023/06/15 00:15:18;;;;;;;;;31.25;30.25;;;;;;;;5028514;28;52047;-61
2023/06/15 00:17:43;;;;;;;;;32.25;31.00;;;;;;;;5019866;28;51218;-60
2023/06/15 00:20:09;;;;;;;;;36.00;32.25;;;;;;;;5020152;28;51131;-60
2023/06/15 00:22:37;;;;;;;;;35.00;31.50;;;;;;;;5025835;28;51283;-60
2023/06/15 00:25:02;;;;;;;;;34.00;32.00;;;;;;;;5023290;28;51144;-61
2023/06/15 00:27:27;;;;;;;;;33.50;30.50;;;;;;;;5026672;28;51056;-60
2023/06/15 00:29:53;;;;;;;;;33.25;29.25;;;;;;;;5016116;28;51546;-60
2023/06/15 00:32:18;;;;;;;;;16.25;15.00;;;;;;;;5028167;28;51328;-60
2023/06/15 00:34:43;;;;;;;;;26.25;26.25;;;;;;;;5028067;28;51994;-60
2023/06/15 00:37:08;;;;;;;;;27.50;27.50;;;;;;;;5028663;28;50988;-60
2023/06/15 00:39:33;;;;;;;;;31.00;29.50;;;;;;;;5023547;28;54142;-61
2023/06/15 00:41:59;;;;;;;;;29.50;29.50;;;;;;;;5019192;28;51207;-60
2023/06/15 00:44:24;;;;;;;;;28.50;27.75;;;;;;;;5024445;28;51042;-60
2023/06/15 00:46:50;;;;;;;;;23.50;23.25;;;;;;;;5027920;28;51149;-60
2023/06/15 00:49:15;;;;;;;;;25.75;25.75;;;;;;;;5019299;28;51119;-61
2023/06/15 00:51:41;;;;;;;;;25.25;25.25;;;;;;;;5023380;28;51191;-60
2023/06/15 00:54:07;;;;;;;;;26.00;25.25;;;;;;;;5012819;28;51776;-60
2023/06/15 00:56:32;;;;;;;;;25.00;24.25;;;;;;;;5026198;28;51084;-60
2023/06/15 00:58:58;;;;;;;;;26.00;24.75;;;;;;;;5013346;28;51202;-60
2023/06/15 01:01:23;;;;;;;;;21.75;21.00;;;;;;;;5024200;28;54135;-60
2023/06/15 01:03:49;;;;;;;;;26.00;25.00;;;;;;;;5017367;28;51849;-59
2023/06/15 01:06:15;;;;;;;;;23.50;22.75;;;;;;;;5026361;28;52651;-60
2023/06/15 01:08:41;;;;;;;;;27.00;27.00;;;;;;;;5026466;28;51119;-60
2023/06/15 01:11:07;;;;;;;;;28.50;28.00;;;;;;;;5022157;28;52635;-60
2023/06/15 01:13:33;;;;;;;;;23.75;23.75;;;;;;;;5026543;28;51788;-60
2023/06/15 01:15:59;;;;;;;;;33.50;28.50;;;;;;;;5015903;28;51065;-60
2023/06/15 01:18:25;;;;;;;;;23.50;23.25;;;;;;;;5028881;28;51224;-60
2023/06/15 01:20:53;;;;;;;;;23.00;22.50;;;;;;;;5022187;28;50948;-60
2023/06/15 01:23:43;;;;;;;;;25.25;23.00;;;;;;;;5017582;28;52244;-61
2023/06/15 01:26:11;;;;;;;;;23.00;23.00;;;;;;;;5032057;28;51032;-60
2023/06/15 01:28:40;;;;;;;;;25.75;25.00;;;;;;;;5021230;28;51062;-60
2023/06/15 01:31:06;;;;;;;;;30.00;28.75;;;;;;;;5019787;28;52730;-60
2023/06/15 01:33:31;;;;;;;;;28.00;26.00;;;;;;;;5018085;28;51150;-60
2023/06/15 01:35:57;;;;;;;;;25.00;24.75;;;;;;;;5026925;28;51104;-60
2023/06/15 01:38:24;;;;;;;;;34.75;32.50;;;;;;;;5031247;28;51081;-60
2023/06/15 01:40:50;;;;;;;;;34.75;31.00;;;;;;;;5028517;28;51232;-61
2023/06/15 01:43:18;;;;;;;;;29.50;29.25;;;;;;;;5024868;28;51090;-61
2023/06/15 01:45:44;;;;;;;;;28.00;27.50;;;;;;;;5028149;28;51175;-61
2023/06/15 01:48:11;;;;;;;;;20.50;20.50;;;;;;;;5030281;28;50955;-61
2023/06/15 01:50:37;;;;;;;;;23.75;23.25;;;;;;;;5026126;28;51331;-61
2023/06/15 01:53:02;;;;;;;;;24.00;22.50;;;;;;;;5017623;28;51608;-61
2023/06/15 01:55:27;;;;;;;;;20.75;19.50;;;;;;;;5020562;28;51201;-63
2023/06/15 01:57:53;;;;;;;;;25.75;25.25;;;;;;;;5021421;28;51539;-61
2023/06/15 02:00:19;;;;;;;;;22.25;21.50;;;;;;;;5023606;28;50925;-61
2023/06/15 02:02:44;;;;;;;;;23.00;22.50;;;;;;;;5020250;28;51928;-61
2023/06/15 02:05:09;;;;;;;;;26.25;26.00;;;;;;;;5028497;28;51411;-61
2023/06/15 02:07:35;;;;;;;;;27.00;24.75;;;;;;;;5030514;28;51146;-61
2023/06/15 02:10:00;;;;;;;;;26.75;26.25;;;;;;;;5029188;28;51301;-60
2023/06/15 02:12:25;;;;;;;;;26.50;25.50;;;;;;;;5026915;28;52434;-60
2023/06/15 02:14:51;;;;;;;;;25.00;24.75;;;;;;;;5019981;28;50925;-61
2023/06/15 02:17:17;;;;;;;;;25.00;24.00;;;;;;;;5020755;28;51378;-61
2023/06/15 02:19:44;;;;;;;;;40.75;34.75;;;;;;;;5026967;28;51066;-61
2023/06/15 02:22:09;;;;;;;;;29.50;29.25;;;;;;;;5020976;28;51220;-61
2023/06/15 02:24:34;;;;;;;;;33.50;30.25;;;;;;;;5021145;28;51131;-60
2023/06/15 02:26:59;;;;;;;;;37.00;32.75;;;;;;;;5025653;28;51131;-61
2023/06/15 02:29:25;;;;;;;;;45.00;38.25;;;;;;;;5026520;28;51059;-60
2023/06/15 02:31:50;;;;;;;;;53.00;43.50;;;;;;;;5023777;28;51618;-61
2023/06/15 02:34:15;;;;;;;;;52.00;41.50;;;;;;;;5025878;28;51199;-60
2023/06/15 02:36:40;;;;;;;;;50.00;40.75;;;;;;;;5018318;28;51206;-61
2023/06/15 02:39:06;;;;;;;;;50.50;40.00;;;;;;;;5023619;28;51378;-61
2023/06/15 02:41:31;;;;;;;;;53.50;43.50;;;;;;;;5021961;28;52545;-61
2023/06/15 02:43:57;;;;;;;;;48.75;41.25;;;;;;;;5023363;28;51537;-61
2023/06/15 02:46:22;;;;;;;;;49.25;39.50;;;;;;;;5029151;28;51039;-61
2023/06/15 02:48:51;;;;;;;;;50.50;42.00;;;;;;;;5026411;28;51191;-60
2023/06/15 02:51:16;;;;;;;;;48.50;40.00;;;;;;;;5022600;28;52633;-60
2023/06/15 02:53:42;;;;;;;;;46.75;38.25;;;;;;;;5028793;28;51092;-61
2023/06/15 02:56:07;;;;;;;;;35.50;32.50;;;;;;;;5029649;28;51133;-61
2023/06/15 02:58:34;;;;;;;;;40.75;33.50;;;;;;;;5024137;28;50850;-60
2023/06/15 03:01:00;;;;;;;;;27.25;26.25;;;;;;;;5020268;28;51762;-60
2023/06/15 03:03:29;;;;;;;;;30.00;28.50;;;;;;;;5020331;28;51202;-61
2023/06/15 03:05:54;;;;;;;;;34.75;31.75;;;;;;;;5019363;28;51119;-61
2023/06/15 03:08:20;;;;;;;;;39.50;35.00;;;;;;;;5021818;28;51116;-60
2023/06/15 03:10:46;;;;;;;;;27.50;26.00;;;;;;;;5020258;28;51716;-61
2023/06/15 03:13:11;;;;;;;;;31.50;30.25;;;;;;;;5026068;28;50787;-61
2023/06/15 03:15:36;;;;;;;;;30.50;27.75;;;;;;;;5032712;28;50958;-60
2023/06/15 03:18:03;;;;;;;;;25.75;24.75;;;;;;;;5026458;28;52610;-61
2023/06/15 03:20:32;;;;;;;;;26.75;24.25;;;;;;;;5027609;28;52000;-61
2023/06/15 03:22:58;;;;;;;;;26.50;25.75;;;;;;;;5022531;28;51374;-61
2023/06/15 03:25:23;;;;;;;;;27.00;26.75;;;;;;;;5025802;28;51336;-61
2023/06/15 03:27:49;;;;;;;;;24.75;22.75;;;;;;;;5019532;28;51325;-60
2023/06/15 03:30:14;;;;;;;;;23.75;23.00;;;;;;;;5023147;28;51906;-61
2023/06/15 03:32:39;;;;;;;;;32.00;29.25;;;;;;;;5025812;28;51039;-61
2023/06/15 03:35:05;;;;;;;;;32.75;29.50;;;;;;;;5021815;28;51329;-60
2023/06/15 03:37:30;;;;;;;;;29.00;28.50;;;;;;;;5019596;28;51006;-61
2023/06/15 03:39:55;;;;;;;;;28.75;28.25;;;;;;;;5012335;28;51213;-61
2023/06/15 03:42:20;;;;;;;;;30.00;28.25;;;;;;;;5022447;28;50995;-60
2023/06/15 03:44:45;;;;;;;;;32.00;29.25;;;;;;;;5020900;28;52946;-61
2023/06/15 03:47:11;;;;;;;;;27.75;26.75;;;;;;;;5026777;28;50835;-61
2023/06/15 03:49:36;;;;;;;;;28.25;27.50;;;;;;;;5030551;28;51000;-61
2023/06/15 03:52:01;;;;;;;;;25.00;24.75;;;;;;;;5022697;28;51281;-61
2023/06/15 03:54:26;;;;;;;;;16.25;15.25;;;;;;;;5027329;28;50889;-61
2023/06/15 03:56:51;;;;;;;;;21.00;20.75;;;;;;;;5015333;28;51016;-61
2023/06/15 03:59:16;;;;;;;;;22.75;21.75;;;;;;;;5022008;28;51424;-61
2023/06/15 04:01:43;;;;;;;;;17.00;17.00;;;;;;;;5019400;28;51615;-61
2023/06/15 04:04:08;;;;;;;;;19.75;19.25;;;;;;;;5026453;28;51139;-61
2023/06/15 04:06:35;;;;;;;;;18.25;18.00;;;;;;;;5013333;28;51096;-61
2023/06/15 04:09:01;;;;;;;;;20.00;19.25;;;;;;;;5022370;28;51854;-60
2023/06/15 04:11:26;;;;;;;;;20.00;20.00;;;;;;;;5028831;28;51385;-61
2023/06/15 04:13:51;;;;;;;;;23.75;22.00;;;;;;;;5022895;28;51319;-61
2023/06/15 04:16:16;;;;;;;;;20.50;20.50;;;;;;;;5017599;28;51280;-61
2023/06/15 04:18:42;;;;;;;;;20.25;20.00;;;;;;;;5028002;28;51660;-61
2023/06/15 04:21:07;;;;;;;;;23.00;23.00;;;;;;;;5018985;28;51234;-60
2023/06/15 04:23:32;;;;;;;;;22.50;21.25;;;;;;;;5016967;28;51024;-60
2023/06/15 04:26:00;;;;;;;;;23.00;22.00;;;;;;;;5018622;28;51236;-61
2023/06/15 04:28:25;;;;;;;;;17.75;17.75;;;;;;;;5019339;28;51691;-61
2023/06/15 04:30:52;;;;;;;;;24.00;22.50;;;;;;;;5029098;28;50861;-61
2023/06/15 04:33:19;;;;;;;;;23.00;21.75;;;;;;;;5026749;28;51329;-61
2023/06/15 04:35:45;;;;;;;;;25.75;24.00;;;;;;;;5015423;28;51458;-61
2023/06/15 04:38:12;;;;;;;;;22.00;21.50;;;;;;;;5023866;28;51646;-60
2023/06/15 04:40:37;;;;;;;;;23.00;22.00;;;;;;;;5028672;28;51190;-60
2023/06/15 04:43:03;;;;;;;;;19.75;19.75;;;;;;;;5017964;28;51175;-61
2023/06/15 04:45:28;;;;;;;;;19.75;18.50;;;;;;;;5021480;28;51876;-61
2023/06/15 04:47:53;;;;;;;;;20.75;20.75;;;;;;;;5028988;28;52029;-61
2023/06/15 04:50:21;;;;;;;;;16.33;16.00;;;;;;;;5018663;28;51088;-60
2023/06/15 04:52:46;;;;;;;;;17.00;16.75;;;;;;;;5027489;28;50832;-61
2023/06/15 04:55:11;;;;;;;;;19.25;18.00;;;;;;;;5027024;28;51134;-61
2023/06/15 04:57:37;;;;;;;;;17.00;17.00;;;;;;;;5029138;28;51145;-61
2023/06/15 05:00:06;;;;;;;;;18.25;17.75;;;;;;;;5028122;28;50927;-61
2023/06/15 05:02:31;;;;;;;;;17.00;17.00;;;;;;;;5022953;28;51201;-61
2023/06/15 05:04:57;;;;;;;;;16.00;15.25;;;;;;;;5015018;28;51412;-61
2023/06/15 05:07:22;;;;;;;;;25.50;24.50;;;;;;;;5027564;28;51635;-61
2023/06/15 05:09:47;;;;;;;;;20.50;19.50;;;;;;;;5027139;28;51731;-61
2023/06/15 05:12:12;;;;;;;;;30.25;25.75;;;;;;;;5022591;28;51165;-61
2023/06/15 05:14:37;;;;;;;;;47.25;37.25;;;;;;;;5027340;28;51195;-61
2023/06/15 05:17:03;;;;;;;;;21.25;19.00;;;;;;;;5020498;28;52015;-61
2023/06/15 05:19:28;;;;;;;;;15.00;15.00;;;;;;;;5021369;28;51236;-61
2023/06/15 05:21:57;;;;;;;;;20.67;18.00;;;;;;;;5022638;28;51283;-61
2023/06/15 05:24:22;;;;;;;;;18.00;18.00;;;;;;;;5023504;28;51002;-61
2023/06/15 05:26:47;;;;;;;;;18.00;17.33;;;;;;;;5018851;28;51092;-61
2023/06/15 05:29:12;;;;;;;;;18.50;18.00;;;;;;;;5024682;28;51067;-61
2023/06/15 05:31:38;;;;;;;;;15.00;15.00;;;;;;;;5029275;28;50929;-62
2023/06/15 05:34:03;;;;;;;;;14.50;14.50;;;;;;;;5015046;28;50974;-61
2023/06/15 05:36:30;;;;;;;;;17.75;17.00;;;;;;;;5018807;28;51924;-61
2023/06/15 05:38:56;;;;;;;;;19.00;18.00;;;;;;;;5025211;28;51199;-61
2023/06/15 05:41:21;;;;;;;;;19.50;18.25;;;;;;;;5029499;28;50876;-61
2023/06/15 05:43:46;;;;;;;;;18.50;18.50;;;;;;;;5019713;28;52894;-61
2023/06/15 05:46:11;;;;;;;;;18.00;17.50;;;;;;;;5021789;28;51142;-61
2023/06/15 05:48:37;;;;;;;;;18.50;18.50;;;;;;;;5020975;28;51280;-61
2023/06/15 05:51:02;;;;;;;;;18.00;18.00;;;;;;;;5027563;28;51096;-61
2023/06/15 05:53:27;;;;;;;;;17.00;17.00;;;;;;;;5014688;28;51413;-62
2023/06/15 05:55:52;;;;;;;;;19.25;19.25;;;;;;;;5021818;28;51841;-61
2023/06/15 05:58:17;;;;;;;;;16.00;16.00;;;;;;;;5020888;28;51187;-61
2023/06/15 06:00:43;;;;;;;;;18.50;18.25;;;;;;;;5023830;28;51339;-60
2023/06/15 06:03:08;;;;;;;;;19.00;18.50;;;;;;;;5015670;28;51095;-61
2023/06/15 06:05:33;;;;;;;;;18.25;17.00;;;;;;;;5015892;28;51898;-61
2023/06/15 06:07:58;;;;;;;;;18.25;18.00;;;;;;;;5020274;28;51056;-61
2023/06/15 06:10:23;;;;;;;;;18.75;18.00;;;;;;;;5016217;28;52060;-61
2023/06/15 06:12:49;;;;;;;;;16.75;15.75;;;;;;;;5018804;28;52385;-61
2023/06/15 06:15:14;;;;;;;;;14.25;13.50;;;;;;;;5021880;28;51460;-61
2023/06/15 06:17:40;;;;;;;;;15.00;15.00;;;;;;;;5023600;28;50989;-61
2023/06/15 06:20:05;;;;;;;;;17.25;16.75;;;;;;;;5020464;28;50892;-61
2023/06/15 06:22:30;;;;;;;;;15.00;14.00;;;;;;;;5022229;28;51239;-61
2023/06/15 06:24:56;;;;;;;;;13.33;13.33;;;;;;;;5013811;28;51082;-62
2023/06/15 06:27:21;;;;;;;;;14.75;14.25;;;;;;;;5025089;28;51060;-62
2023/06/15 06:29:46;;;;;;;;;15.75;15.75;;;;;;;;5014335;28;51065;-62
2023/06/15 06:32:11;;;;;;;;;20.50;19.75;;;;;;;;5014346;28;50830;-62
2023/06/15 06:34:36;;;;;;;;;15.25;15.00;;;;;;;;5027400;28;51127;-62
2023/06/15 06:37:05;;;;;;;;;15.00;14.75;;;;;;;;5023638;28;51388;-61
2023/06/15 06:39:31;;;;;;;;;15.50;15.00;;;;;;;;5014210;28;51124;-60
2023/06/15 06:41:56;;;;;;;;;14.50;14.00;;;;;;;;5022991;28;51051;-61
2023/06/15 06:44:21;;;;;;;;;15.25;15.25;;;;;;;;5013932;28;51219;-61
2023/06/15 06:46:47;;;;;;;;;16.25;14.25;;;;;;;;5023860;28;51095;-61
2023/06/15 06:49:12;;;;;;;;;18.25;16.75;;;;;;;;5024220;28;51219;-61
2023/06/15 06:51:38;;;;;;;;;15.00;15.00;;;;;;;;5024202;28;51968;-62
2023/06/15 06:54:03;;;;;;;;;16.50;16.50;;;;;;;;5028200;28;51937;-61
2023/06/15 06:56:28;;;;;;;;;15.25;14.50;;;;;;;;5022269;28;51314;-61
2023/06/15 06:58:53;;;;;;;;;14.50;14.25;;;;;;;;5021262;28;51464;-61
2023/06/15 07:01:18;;;;;;;;;15.33;15.00;;;;;;;;5028571;28;51174;-61
2023/06/15 07:03:44;;;;;;;;;19.25;18.00;;;;;;;;5025469;28;52764;-61
2023/06/15 07:06:09;;;;;;;;;16.50;16.50;;;;;;;;5021287;28;51095;-61
2023/06/15 07:08:34;;;;;;;;;17.75;17.25;;;;;;;;5027155;28;51497;-61
2023/06/15 07:10:59;;;;;;;;;15.00;15.00;;;;;;;;5030601;28;52323;-62
2023/06/15 07:13:25;;;;;;;;;18.50;18.50;;;;;;;;5031280;28;52081;-62
2023/06/15 07:15:54;;;;;;;;;12.67;12.00;;;;;;;;5024174;28;51105;-60
2023/06/15 07:18:19;;;;;;;;;14.00;14.00;;;;;;;;5030049;28;51155;-61
2023/06/15 07:20:44;;;;;;;;;13.67;13.00;;;;;;;;5029559;28;51161;-61
2023/06/15 07:23:09;;;;;;;;;14.67;14.67;;;;;;;;5024492;28;53677;-61
2023/06/15 07:25:35;;;;;;;;;13.00;12.33;;;;;;;;5028712;28;50999;-62
2023/06/15 07:28:00;;;;;;;;;15.75;15.75;;;;;;;;5032773;28;51078;-62
2023/06/15 07:30:25;;;;;;;;;12.33;12.00;;;;;;;;5021607;28;51168;-61
2023/06/15 07:32:50;;;;;;;;;12.00;12.00;;;;;;;;5022001;28;51126;-61
2023/06/15 07:35:16;;;;;;;;;14.00;13.67;;;;;;;;5020999;28;51197;-61
2023/06/15 07:37:41;;;;;;;;;13.00;12.00;;;;;;;;5028493;28;51312;-61
2023/06/15 07:40:07;;;;;;;;;14.33;14.33;;;;;;;;5020566;28;51077;-60
2023/06/15 07:42:32;;;;;;;;;16.75;16.00;;;;;;;;5019646;28;51092;-61
2023/06/15 07:44:57;;;;;;;;;15.25;14.25;;;;;;;;5019877;28;50898;-62
2023/06/15 07:47:22;;;;;;;;;13.75;13.75;;;;;;;;5026902;28;50964;-62
2023/06/15 07:49:47;;;;;;;;;15.25;15.00;;;;;;;;5030821;28;51169;-62
2023/06/15 07:52:13;;;;;;;;;16.00;16.00;;;;;;;;5027670;28;52084;-62
2023/06/15 07:54:38;;;;;;;;;16.00;16.00;;;;;;;;5027699;28;51124;-60
2023/06/15 07:57:03;;;;;;;;;13.00;12.67;;;;;;;;5023308;28;51479;-61
2023/06/15 07:59:29;;;;;;;;;14.75;14.00;;;;;;;;5020278;28;50985;-61
2023/06/15 08:01:54;;;;;;;;;12.00;12.00;;;;;;;;5027665;28;51877;-62
2023/06/15 08:04:19;;;;;;;;;17.25;16.25;;;;;;;;5029188;28;51159;-61
2023/06/15 08:06:45;;;;;;;;;15.67;14.67;;;;;;;;5021474;28;51033;-61
2023/06/15 08:09:11;;;;;;;;;14.00;13.00;;;;;;;;5032135;28;50899;-62
2023/06/15 08:11:36;;;;;;;;;13.33;12.00;;;;;;;;5029412;28;51710;-62
2023/06/15 08:14:02;;;;;;;;;13.50;13.50;;;;;;;;5022400;28;51071;-60
2023/06/15 08:16:27;;;;;;;;;11.33;11.33;;;;;;;;5023337;28;51093;-61
2023/06/15 08:18:53;;;;;;;;;15.00;13.33;;;;;;;;5031026;28;51473;-60
2023/06/15 08:21:18;;;;;;;;;12.00;12.00;;;;;;;;5023971;28;51634;-62
2023/06/15 08:23:43;;;;;;;;;15.25;14.75;;;;;;;;5018137;28;51206;-62
2023/06/15 08:26:09;;;;;;;;;11.67;10.67;;;;;;;;5025523;28;50854;-62
2023/06/15 08:28:35;;;;;;;;;11.33;11.33;;;;;;;;5032966;28;50896;-62
2023/06/15 08:31:00;;;;;;;;;12.00;12.00;;;;;;;;5020157;28;51913;-62
2023/06/15 08:33:25;;;;;;;;;16.00;15.25;;;;;;;;5021257;28;51127;-62
2023/06/15 08:35:50;;;;;;;;;13.00;13.00;;;;;;;;5019176;28;51106;-62
2023/06/15 08:38:15;;;;;;;;;13.67;13.00;;;;;;;;5025548;28;51162;-63
2023/06/15 08:40:41;;;;;;;;;12.25;10.25;;;;;;;;5021105;28;51122;-62
2023/06/15 08:43:07;;;;;;;;;11.50;11.00;;;;;;;;5025059;28;51173;-62
2023/06/15 08:45:40;;;;;;;;;14.00;14.00;;;;;;;;5028439;28;51085;-62
2023/06/15 08:48:07;;;;;;;;;14.25;13.50;;;;;;;;5020786;28;51019;-62
2023/06/15 08:50:33;;;;;;;;;13.33;11.00;;;;;;;;5017870;28;51897;-62
2023/06/15 08:52:59;;;;;;;;;12.67;12.00;;;;;;;;5026962;28;51194;-62
2023/06/15 08:55:25;;;;;;;;;12.00;11.00;;;;;;;;5028772;28;51129;-62
2023/06/15 08:57:51;;;;;;;;;17.00;16.25;;;;;;;;5026016;28;51204;-63
2023/06/15 09:00:16;;;;;;;;;15.75;15.75;;;;;;;;5019117;28;51150;-63
2023/06/15 09:02:43;;;;;;;;;12.25;11.25;;;;;;;;5028088;28;51220;-62
2023/06/15 09:05:08;;;;;;;;;11.00;11.00;;;;;;;;5027543;28;50867;-63
2023/06/15 09:07:34;;;;;;;;;12.75;11.75;;;;;;;;5025705;28;51083;-62
2023/06/15 09:10:09;;;;;;;;;13.67;13.00;;;;;;;;5025177;28;52796;-63
2023/06/15 09:12:40;;;;;;;;;14.50;12.50;;;;;;;;5025586;28;51344;-61
2023/06/15 09:15:07;;;;;;;;;15.00;15.00;;;;;;;;5008961;28;51296;-61
2023/06/15 09:17:35;;;;;;;;;13.25;12.75;;;;;;;;5010764;28;51278;-61
2023/06/15 09:20:00;;;;;;;;;12.25;12.25;;;;;;;;5023679;28;52062;-62
2023/06/15 09:22:26;;;;;;;;;10.75;10.75;;;;;;;;5015982;28;51107;-62
2023/06/15 09:24:51;;;;;;;;;11.00;11.00;;;;;;;;5009722;28;51275;-61
2023/06/15 09:27:17;;;;;;;;;12.50;12.50;;;;;;;;5012299;28;51066;-61
2023/06/15 09:30:17;;;;;;;;;12.75;11.75;;;;;;;;5018427;28;51153;-62
2023/06/15 09:32:43;;;;;;;;;15.00;15.00;;;;;;;;5010597;28;51097;-64
2023/06/15 09:35:08;;;;;;;;;15.25;15.00;;;;;;;;5019586;28;50886;-61
2023/06/15 09:37:33;;;;;;;;;12.00;12.00;;;;;;;;5015080;28;51006;-62
2023/06/15 09:39:59;;;;;;;;;11.25;11.25;;;;;;;;5014949;28;51656;-61
2023/06/15 09:42:28;;;;;;;;;11.00;11.00;;;;;;;;5015374;28;50886;-62
2023/06/15 09:44:54;;;;;;;;;13.00;13.00;;;;;;;;5015609;28;51022;-62
2023/06/15 09:47:20;;;;;;;;;13.00;11.75;;;;;;;;5023876;28;51205;-61
2023/06/15 09:49:47;;;;;;;;;13.25;12.00;;;;;;;;5018395;28;51850;-61
2023/06/15 09:52:13;;;;;;;;;12.75;12.25;;;;;;;;5014965;28;51055;-61
2023/06/15 09:54:39;;;;;;;;;14.50;14.00;;;;;;;;5014734;28;51080;-61
2023/06/15 09:57:04;;;;;;;;;13.75;13.25;;;;;;;;5015174;28;50981;-62
2023/06/15 09:59:30;;;;;;;;;13.75;12.75;;;;;;;;5014280;28;52430;-62
2023/06/15 10:01:55;;;;;;;;;11.50;11.50;;;;;;;;5014616;28;50997;-61
2023/06/15 10:04:22;;;;;;;;;12.00;11.25;;;;;;;;5028648;28;50991;-61
2023/06/15 10:06:49;;;;;;;;;10.25;10.25;;;;;;;;5015281;28;51038;-62
2023/06/15 10:09:16;;;;;;;;;13.75;13.75;;;;;;;;5026811;28;51037;-61
2023/06/15 10:11:43;;;;;;;;;11.00;11.00;;;;;;;;5030379;28;50861;-62
2023/06/15 10:14:14;;;;;;;;;11.00;10.33;;;;;;;;5019995;28;51064;-61
2023/06/15 10:16:40;;;;;;;;;13.25;13.00;;;;;;;;5014529;28;50981;-61
2023/06/15 10:19:10;;;;;;;;;11.50;11.25;;;;;;;;5017252;28;52984;-62
2023/06/15 10:21:38;;;;;;;;;15.75;15.25;;;;;;;;5019138;28;51131;-61
2023/06/15 10:24:08;;;;;;;;;19.75;17.25;;;;;;;;5014527;28;51326;-61
2023/06/15 10:26:33;;;;;;;;;10.75;10.75;;;;;;;;5014249;28;51331;-62
2023/06/15 10:29:02;;;;;;;;;13.50;12.75;;;;;;;;5014021;28;51074;-60
2023/06/15 10:31:47;;;;;;;;;13.50;13.50;;;;;;;;5013735;28;51094;-61
2023/06/15 10:34:24;;;;;;;;;12.00;12.00;;;;;;;;5013642;28;51199;-61
2023/06/15 10:37:05;;;;;;;;;14.75;14.25;;;;;;;;5014161;28;51293;-62
2023/06/15 10:39:39;;;;;;;;;13.00;13.00;;;;;;;;5013422;28;52035;-62
2023/06/15 10:42:08;;;;;;;;;15.50;15.00;;;;;;;;5014113;28;51122;-61
2023/06/15 10:44:33;;;;;;;;;16.00;16.00;;;;;;;;5013147;28;51274;-61
2023/06/15 10:47:05;;;;;;;;;11.50;11.50;;;;;;;;5013964;28;51239;-61
2023/06/15 10:49:31;;;;;;;;;13.50;13.50;;;;;;;;5013900;28;51840;-62
2023/06/15 10:51:56;;;;;;;;;15.50;14.50;;;;;;;;5013718;28;51057;-62
2023/06/15 10:54:22;;;;;;;;;20.75;19.25;;;;;;;;5021019;28;51109;-62
2023/06/15 10:56:49;;;;;;;;;14.25;13.00;;;;;;;;5018929;28;51309;-61
2023/06/15 10:59:14;;;;;;;;;13.50;12.75;;;;;;;;5013520;28;51784;-61
2023/06/15 11:01:41;;;;;;;;;14.00;14.00;;;;;;;;5018181;28;51323;-62
2023/06/15 11:04:25;;;;;;;;;12.75;12.50;;;;;;;;5013577;28;51028;-62
2023/06/15 11:06:58;;;;;;;;;18.00;18.00;;;;;;;;5013334;28;51336;-60
2023/06/15 11:09:28;;;;;;;;;21.00;19.75;;;;;;;;5025646;28;52579;-63
2023/06/15 11:11:53;;;;;;;;;18.75;17.50;;;;;;;;5026426;28;51224;-61
2023/06/15 11:14:19;;;;;;;;;22.00;21.00;;;;;;;;5031913;28;51035;-61
2023/06/15 11:16:44;;;;;;;;;16.50;16.00;;;;;;;;5033500;28;51119;-61
2023/06/15 11:19:10;;;;;;;;;14.00;13.50;;;;;;;;5028364;28;52855;-61
2023/06/15 11:21:36;;;;;;;;;15.00;14.00;;;;;;;;5013958;28;50930;-61
2023/06/15 11:24:03;;;;;;;;;17.75;17.00;;;;;;;;5012147;28;50969;-61
2023/06/15 11:26:29;;;;;;;;;16.75;16.75;;;;;;;;5013537;28;51339;-62
2023/06/15 11:28:57;;;;;;;;;14.75;14.75;;;;;;;;5025719;28;51646;-62
2023/06/15 11:31:23;;;;;;;;;16.50;15.50;;;;;;;;5013171;28;50906;-62
2023/06/15 11:33:49;;;;;;;;;17.50;16.00;;;;;;;;5011201;28;50906;-61
2023/06/15 11:36:14;;;;;;;;;17.00;16.00;;;;;;;;5013786;28;51253;-60
2023/06/15 11:38:40;;;;;;;;;16.25;15.25;;;;;;;;5012298;28;51123;-60
2023/06/15 11:41:06;;;;;;;;;17.75;17.25;;;;;;;;5013007;28;50963;-61
2023/06/15 11:43:34;;;;;;;;;18.00;16.25;;;;;;;;5012870;28;51272;-61
2023/06/15 11:45:59;;;;;;;;;16.75;16.00;;;;;;;;5012745;28;51443;-61
2023/06/15 11:48:25;;;;;;;;;16.50;16.50;;;;;;;;5012785;28;52066;-61
2023/06/15 11:50:50;;;;;;;;;18.75;18.00;;;;;;;;5012953;28;50895;-61
2023/06/15 11:53:16;;;;;;;;;16.75;16.00;;;;;;;;5013181;28;51045;-60
2023/06/15 11:55:45;;;;;;;;;15.00;15.00;;;;;;;;5012913;28;50832;-61
2023/06/15 11:58:11;;;;;;;;;15.50;15.50;;;;;;;;5013020;28;52132;-61
2023/06/15 12:00:36;;;;;;;;;16.00;16.00;;;;;;;;5020722;28;51001;-61
2023/06/15 12:03:11;;;;;;;;;16.25;16.25;;;;;;;;5020977;28;51059;-61
2023/06/15 12:05:40;;;;;;;;;17.50;17.25;;;;;;;;5015890;28;51220;-61
2023/06/15 12:08:06;;;;;;;;;15.50;15.50;;;;;;;;5015630;28;52346;-60
2023/06/15 12:10:32;;;;;;;;;17.00;17.00;;;;;;;;5027226;28;50961;-60
2023/06/15 12:12:59;;;;;;;;;19.00;17.25;;;;;;;;5017481;28;51132;-61
2023/06/15 12:15:24;;;;;;;;;17.00;16.25;;;;;;;;5012268;28;51260;-61
2023/06/15 12:17:49;;;;;;;;;20.75;19.00;;;;;;;;5010606;28;52730;-62
2023/06/15 12:20:14;;;;;;;;;18.00;17.25;;;;;;;;5025481;28;51029;-61
2023/06/15 12:22:44;;;;;;;;;17.00;17.00;;;;;;;;5024153;28;50968;-62
2023/06/15 12:25:10;;;;;;;;;19.50;18.75;;;;;;;;5012584;28;51193;-62
2023/06/15 12:27:41;;;;;;;;;22.75;22.25;;;;;;;;5012262;28;52164;-61
2023/06/15 12:30:12;;;;;;;;;19.75;19.00;;;;;;;;5012215;28;50885;-61
2023/06/15 12:32:49;;;;;;;;;16.00;16.00;;;;;;;;5012310;28;51242;-62
2023/06/15 12:35:24;;;;;;;;;18.00;16.25;;;;;;;;5012127;28;51207;-62
2023/06/15 12:37:50;;;;;;;;;20.00;20.00;;;;;;;;5012032;28;52027;-62
2023/06/15 12:40:19;;;;;;;;;20.50;20.50;;;;;;;;5012198;28;51021;-62
2023/06/15 12:42:45;;;;;;;;;18.00;16.75;;;;;;;;5010919;28;51057;-62
2023/06/15 12:45:10;;;;;;;;;18.50;18.50;;;;;;;;5012025;28;51320;-62
2023/06/15 12:47:35;;;;;;;;;18.50;18.50;;;;;;;;5012238;28;51842;-60
2023/06/15 12:50:00;;;;;;;;;18.50;18.00;;;;;;;;5011084;28;51009;-60
2023/06/15 12:52:27;;;;;;;;;20.00;20.00;;;;;;;;5010803;28;50892;-60
2023/06/15 12:54:52;;;;;;;;;17.25;17.25;;;;;;;;5024859;28;50994;-61
2023/06/15 12:57:17;;;;;;;;;17.25;17.25;;;;;;;;5012326;28;51006;-61
2023/06/15 12:59:43;;;;;;;;;27.00;25.75;;;;;;;;5025123;28;51088;-61
2023/06/15 13:02:09;;;;;;;;;25.50;25.00;;;;;;;;5010644;28;51117;-61
2023/06/15 13:04:34;;;;;;;;;22.50;21.50;;;;;;;;5012278;28;50971;-60
2023/06/15 13:06:59;;;;;;;;;15.75;15.50;;;;;;;;5013163;28;51980;-60
2023/06/15 13:09:24;;;;;;;;;18.00;18.00;;;;;;;;5022824;28;51158;-62
2023/06/15 13:11:50;;;;;;;;;19.25;19.25;;;;;;;;5022633;28;50959;-61
2023/06/15 13:14:15;;;;;;;;;18.25;17.75;;;;;;;;5016083;28;51029;-60
2023/06/15 13:16:40;;;;;;;;;16.00;15.75;;;;;;;;5014985;28;52246;-60
2023/06/15 13:19:07;;;;;;;;;17.75;17.25;;;;;;;;5019762;28;51001;-61
2023/06/15 13:21:32;;;;;;;;;16.75;16.25;;;;;;;;5033194;28;51236;-61
2023/06/15 13:23:57;;;;;;;;;21.00;19.75;;;;;;;;5014614;28;51380;-62
2023/06/15 13:26:22;;;;;;;;;20.50;17.50;;;;;;;;5027736;28;51099;-61
2023/06/15 13:28:48;;;;;;;;;16.50;16.50;;;;;;;;5015026;28;51200;-61
2023/06/15 13:31:13;;;;;;;;;20.50;17.75;;;;;;;;5015148;28;51319;-62
2023/06/15 13:33:40;;;;;;;;;19.75;19.75;;;;;;;;5015508;28;51005;-62
2023/06/15 13:36:05;;;;;;;;;15.75;15.75;;;;;;;;5015109;28;51861;-62
2023/06/15 13:38:30;;;;;;;;;15.50;15.25;;;;;;;;5015453;28;50956;-62
2023/06/15 13:40:57;;;;;;;;;17.00;16.25;;;;;;;;5022430;28;51142;-61
2023/06/15 13:43:23;;;;;;;;;21.25;20.50;;;;;;;;5020398;28;50792;-61
2023/06/15 13:45:48;;;;;;;;;18.25;18.25;;;;;;;;5014613;28;50917;-61
2023/06/15 13:48:13;;;;;;;;;17.25;17.00;;;;;;;;5013521;28;50942;-60
2023/06/15 13:50:38;;;;;;;;;20.00;19.75;;;;;;;;5015340;28;51085;-60
2023/06/15 13:53:04;;;;;;;;;16.25;16.00;;;;;;;;5013606;28;51001;-60
2023/06/15 13:55:29;;;;;;;;;18.75;18.75;;;;;;;;5014895;28;51056;-60
2023/06/15 13:57:55;;;;;;;;;15.25;15.25;;;;;;;;5025245;28;51164;-60
2023/06/15 14:00:20;;;;;;;;;16.75;16.00;;;;;;;;5024248;28;50957;-61
2023/06/15 14:02:45;;;;;;;;;19.00;17.75;;;;;;;;5014998;28;51243;-61
2023/06/15 14:05:13;;;;;;;;;19.00;18.00;;;;;;;;5013549;28;53113;-61
2023/06/15 14:07:38;;;;;;;;;21.50;21.25;;;;;;;;5014776;28;51063;-60
2023/06/15 14:10:04;;;;;;;;;20.00;19.25;;;;;;;;5034027;28;51027;-61